createdAt,value
2023-01-11T00:00:24.314Z,18.90
2023-01-11T00:03:16.103Z,17.60
2023-01-11T00:05:46.295Z,18.80
2023-01-11T00:08:15.349Z,16.40
2023-01-11T00:10:44.740Z,17.53
2023-01-11T00:13:14.730Z,16.83
2023-01-11T00:18:15.537Z,16.70
2023-01-11T00:20:44.957Z,19.20
2023-01-11T00:23:14.264Z,17.83
2023-01-11T00:25:43.664Z,16.63
2023-01-11T00:28:12.758Z,17.30
2023-01-11T00:30:42.098Z,18.13
2023-01-11T00:33:14.413Z,20.25
2023-01-11T00:35:43.917Z,21.23
2023-01-11T00:38:33.454Z,19.20
2023-01-11T00:41:22.839Z,23.42
2023-01-11T00:44:15.086Z,19.95
2023-01-11T00:47:01.951Z,17.90
2023-01-11T00:49:32.684Z,19.35
2023-01-11T00:52:02.172Z,21.85
2023-01-11T00:54:31.198Z,18.40
2023-01-11T00:57:00.596Z,18.43
2023-01-11T00:59:29.713Z,20.75
2023-01-11T01:01:59.055Z,19.60
2023-01-11T01:04:28.177Z,24.00
2023-01-11T01:06:58.906Z,34.60
2023-01-11T01:09:28.764Z,33.22
2023-01-11T01:11:58.113Z,30.80
2023-01-11T01:14:26.373Z,35.75
2023-01-11T01:16:57.405Z,26.65
2023-01-11T01:19:27.751Z,29.63
2023-01-11T01:21:59.882Z,30.40
2023-01-11T01:24:29.395Z,29.42
2023-01-11T01:26:59.479Z,28.85
2023-01-11T01:29:28.808Z,32.33
2023-01-11T01:31:58.381Z,31.20
2023-01-11T01:34:27.559Z,30.42
2023-01-11T01:36:58.315Z,27.77
2023-01-11T01:39:27.446Z,33.35
2023-01-11T01:41:56.798Z,32.10
2023-01-11T01:45:04.065Z,29.58
2023-01-11T01:47:45.501Z,30.83
2023-01-11T01:50:18.918Z,32.90
2023-01-11T01:52:54.718Z,34.08
2023-01-11T01:55:29.841Z,29.60
2023-01-11T01:58:01.432Z,34.08
2023-01-11T02:00:30.722Z,31.75
2023-01-11T02:03:02.743Z,29.83
2023-01-11T02:05:32.155Z,35.47
2023-01-11T02:08:08.463Z,38.28
2023-01-11T02:10:39.048Z,34.83
2023-01-11T02:13:12.234Z,39.00
2023-01-11T02:15:41.732Z,39.85
2023-01-11T02:18:13.668Z,46.33
2023-01-11T02:21:08.067Z,39.92
2023-01-11T02:24:08.303Z,44.70
2023-01-11T02:27:07.876Z,48.85
2023-01-11T02:29:47.738Z,43.55
2023-01-11T02:32:27.345Z,46.58
2023-01-11T02:35:09.279Z,46.78
2023-01-11T02:37:44.488Z,40.85
2023-01-11T02:40:23.663Z,48.45
2023-01-11T02:43:14.440Z,38.70
2023-01-11T02:45:51.643Z,38.45
2023-01-11T02:48:28.622Z,36.03
2023-01-11T02:51:05.174Z,36.95
2023-01-11T02:53:39.843Z,33.60
2023-01-11T02:56:13.252Z,33.00
2023-01-11T02:58:46.192Z,36.13
2023-01-11T03:01:17.791Z,32.42
2023-01-11T03:03:47.003Z,30.20
2023-01-11T03:06:20.748Z,30.58
2023-01-11T03:09:19.139Z,35.00
2023-01-11T03:12:24.493Z,32.17
2023-01-11T03:15:04.760Z,29.02
2023-01-11T03:17:45.426Z,29.15
2023-01-11T03:23:01.836Z,33.58
2023-01-11T03:25:40.549Z,33.50
2023-01-11T03:28:18.124Z,29.95
2023-01-11T03:30:54.055Z,31.45
2023-01-11T03:33:33.159Z,31.42
2023-01-11T03:36:08.616Z,30.48
2023-01-11T03:38:43.276Z,27.95
2023-01-11T03:41:16.780Z,28.25
2023-01-11T03:43:49.385Z,33.92
2023-01-11T03:46:23.943Z,28.48
2023-01-11T03:48:58.545Z,27.98
2023-01-11T03:51:30.996Z,28.45
2023-01-11T03:54:02.686Z,28.02
2023-01-11T03:56:36.848Z,25.70
2023-01-11T03:59:06.326Z,25.35
2023-01-11T04:01:35.381Z,27.58
2023-01-11T04:04:06.325Z,24.73
2023-01-11T04:06:38.759Z,32.40
2023-01-11T04:09:08.260Z,29.42
2023-01-11T04:11:37.284Z,26.50
2023-01-11T04:14:06.694Z,29.10
2023-01-11T04:16:35.819Z,29.95
2023-01-11T04:19:06.672Z,30.73
2023-01-11T04:21:35.838Z,32.65
2023-01-11T04:24:05.413Z,28.33
2023-01-11T04:26:34.732Z,33.07
2023-01-11T04:29:04.074Z,27.80
2023-01-11T04:31:33.539Z,29.77
2023-01-11T04:34:02.927Z,29.23
2023-01-11T04:36:33.863Z,26.65
2023-01-11T04:39:03.275Z,23.70
2023-01-11T04:41:49.879Z,25.42
2023-01-11T04:44:19.254Z,26.33
2023-01-11T04:46:48.275Z,27.00
2023-01-11T04:49:17.951Z,23.58
2023-01-11T04:51:48.447Z,24.97
2023-01-11T04:54:17.980Z,26.98
2023-01-11T04:56:47.030Z,25.20
2023-01-11T04:59:16.338Z,24.73
2023-01-11T05:01:45.461Z,27.40
2023-01-11T05:04:14.827Z,23.83
2023-01-11T05:06:44.177Z,25.48
2023-01-11T05:09:16.717Z,30.27
2023-01-11T05:11:46.099Z,23.02
2023-01-11T05:14:16.528Z,25.63
2023-01-11T05:16:46.024Z,25.42
2023-01-11T05:19:15.413Z,21.58
2023-01-11T05:21:44.511Z,26.17
2023-01-11T05:24:16.987Z,21.83
2023-01-11T05:26:48.503Z,22.17
2023-01-11T05:29:20.422Z,26.60
2023-01-11T05:31:50.028Z,22.55
2023-01-11T05:34:20.108Z,27.27
2023-01-11T05:36:49.305Z,26.23
2023-01-11T05:39:20.005Z,26.75
2023-01-11T05:41:49.113Z,26.13
2023-01-11T05:44:36.697Z,25.33
2023-01-11T05:47:05.896Z,27.80
2023-01-11T05:49:35.174Z,25.52
2023-01-11T05:52:04.323Z,29.80
2023-01-11T05:54:35.039Z,29.35
2023-01-11T05:57:04.125Z,33.30
2023-01-11T05:59:33.596Z,29.73
2023-01-11T06:02:02.700Z,28.05
2023-01-11T06:04:32.069Z,29.50
2023-01-11T06:07:01.302Z,29.55
2023-01-11T06:09:30.687Z,37.42
2023-01-11T06:12:01.060Z,44.83
2023-01-11T06:14:30.555Z,49.63
2023-01-11T06:17:02.322Z,36.67
2023-01-11T06:19:31.772Z,32.63
2023-01-11T06:22:00.809Z,29.63
2023-01-11T06:24:30.232Z,35.28
2023-01-11T06:27:00.749Z,35.88
2023-01-11T06:29:30.073Z,37.60
2023-01-11T06:31:59.196Z,39.20
2023-01-11T06:34:28.752Z,32.72
2023-01-11T06:36:57.924Z,31.45
2023-01-11T06:39:27.207Z,28.80
2023-01-11T06:41:56.289Z,26.83
2023-01-11T06:44:27.022Z,27.70
2023-01-11T06:46:56.122Z,22.08
2023-01-11T06:49:25.524Z,23.53
2023-01-11T06:51:54.598Z,21.10
2023-01-11T06:54:32.900Z,24.07
2023-01-11T06:57:01.990Z,20.42
2023-01-11T06:59:32.729Z,20.47
2023-01-11T07:02:02.007Z,14.75
2023-01-11T07:04:32.025Z,21.47
2023-01-11T07:07:01.308Z,15.50
2023-01-11T07:09:30.698Z,18.42
2023-01-11T07:11:59.768Z,20.13
2023-01-11T07:14:29.583Z,18.67
2023-01-11T07:17:00.023Z,19.98
2023-01-11T07:19:29.483Z,16.70
2023-01-11T07:21:58.506Z,17.08
2023-01-11T07:24:28.224Z,19.97
2023-01-11T07:26:59.678Z,15.75
2023-01-11T07:29:29.235Z,14.07
2023-01-11T07:31:59.746Z,18.07
2023-01-11T07:34:29.066Z,12.57
2023-01-11T07:36:58.081Z,15.65
2023-01-11T07:39:42.270Z,13.52
2023-01-11T07:42:29.818Z,13.15
2023-01-11T07:44:59.254Z,12.75
2023-01-11T07:47:29.991Z,15.75
2023-01-11T07:49:59.407Z,16.92
2023-01-11T07:52:28.457Z,14.05
2023-01-11T07:55:02.406Z,16.90
2023-01-11T07:57:32.356Z,18.75
2023-01-11T08:00:01.784Z,23.20
2023-01-11T08:02:41.932Z,18.85
2023-01-11T08:05:11.985Z,18.15
2023-01-11T08:07:43.757Z,20.55
2023-01-11T08:10:14.169Z,17.83
2023-01-11T08:13:04.973Z,17.52
2023-01-11T08:15:36.698Z,18.70
2023-01-11T08:18:07.747Z,18.70
2023-01-11T08:20:37.314Z,23.45
2023-01-11T08:23:08.360Z,16.52
2023-01-11T08:25:38.658Z,19.23
2023-01-11T08:28:08.648Z,19.27
2023-01-11T08:33:08.450Z,20.25
2023-01-11T08:35:40.797Z,20.75
2023-01-11T08:38:09.941Z,18.58
2023-01-11T08:40:39.541Z,21.20
2023-01-11T08:43:08.663Z,22.17
2023-01-11T08:45:38.008Z,18.33
2023-01-11T08:48:08.854Z,23.13
2023-01-11T08:50:38.512Z,19.40
2023-01-11T08:53:07.528Z,22.00
2023-01-11T08:55:36.868Z,24.40
2023-01-11T08:58:06.023Z,23.10
2023-01-11T09:00:35.385Z,23.92
2023-01-11T09:03:04.931Z,19.05
2023-01-11T09:05:35.759Z,18.27
2023-01-11T09:08:05.201Z,21.98
2023-01-11T09:10:35.029Z,20.75
2023-01-11T09:13:04.536Z,20.97
2023-01-11T09:15:33.848Z,19.27
2023-01-11T09:18:03.200Z,18.00
2023-01-11T09:20:34.162Z,19.05
2023-01-11T09:23:03.342Z,17.73
2023-01-11T09:25:33.294Z,19.80
2023-01-11T09:28:02.543Z,20.45
2023-01-11T09:30:31.856Z,17.95
2023-01-11T09:33:00.956Z,19.10
2023-01-11T09:35:30.323Z,16.70
2023-01-11T09:38:01.905Z,17.95
2023-01-11T09:40:42.205Z,15.57
2023-01-11T09:43:15.049Z,15.93
2023-01-11T09:45:46.936Z,15.32
2023-01-11T09:48:28.865Z,14.23
2023-01-11T09:50:58.617Z,14.80
2023-01-11T09:53:35.033Z,15.20
2023-01-11T09:56:07.819Z,15.95
2023-01-11T09:58:51.129Z,14.43
2023-01-11T10:01:26.039Z,16.60
2023-01-11T10:04:25.813Z,13.77
2023-01-11T10:07:14.376Z,14.70
2023-01-11T10:18:35.338Z,15.02
2023-01-11T10:19:31.611Z,13.02
2023-01-11T10:22:00.240Z,13.75
2023-01-11T10:24:37.532Z,17.17
2023-01-11T10:27:15.937Z,14.68
2023-01-11T10:29:57.818Z,12.95
2023-01-11T10:32:58.977Z,17.45
2023-01-11T10:35:59.030Z,15.63
2023-01-11T10:38:54.011Z,16.27
2023-01-11T10:41:34.178Z,13.40
2023-01-11T10:44:30.562Z,15.25
2023-01-11T10:47:03.235Z,13.68
2023-01-11T10:49:44.374Z,16.15
2023-01-11T10:52:35.186Z,18.75
2023-01-11T10:55:13.961Z,12.68
2023-01-11T10:57:59.856Z,13.95
2023-01-11T11:00:40.951Z,14.55
2023-01-11T11:03:45.289Z,15.07
2023-01-11T11:06:24.575Z,12.80
2023-01-11T11:09:03.279Z,13.52
2023-01-11T11:11:37.554Z,15.15
2023-01-11T11:14:15.605Z,16.48
2023-01-11T11:16:59.724Z,12.98
2023-01-11T11:19:33.307Z,12.70
2023-01-11T11:22:02.642Z,13.75
2023-01-11T11:24:38.684Z,10.90
2023-01-11T11:27:18.099Z,15.18
2023-01-11T11:29:52.121Z,15.80
2023-01-11T11:32:27.185Z,12.93
2023-01-11T11:34:56.711Z,12.32
2023-01-11T11:37:28.630Z,13.35
2023-01-11T11:39:58.142Z,10.75
2023-01-11T11:42:27.742Z,13.52
2023-01-11T11:45:17.680Z,13.60
2023-01-11T11:48:03.802Z,15.60
2023-01-11T11:50:48.606Z,13.50
2023-01-11T11:53:37.264Z,12.43
2023-01-11T11:56:18.485Z,12.68
2023-01-11T11:58:48.215Z,14.55
2023-01-11T12:01:30.925Z,15.68
2023-01-11T12:04:05.476Z,13.18
2023-01-11T12:06:35.004Z,13.68
2023-01-11T12:09:12.205Z,14.82
2023-01-11T12:11:43.263Z,13.60
2023-01-11T12:14:20.222Z,13.98
2023-01-11T12:16:49.799Z,16.73
2023-01-11T12:19:35.409Z,15.48
2023-01-11T12:22:17.975Z,16.67
2023-01-11T12:24:48.004Z,13.35
2023-01-11T12:30:19.184Z,15.25
2023-01-11T12:33:06.332Z,14.73
2023-01-11T12:35:52.795Z,13.32
2023-01-11T12:38:39.783Z,16.38
2023-01-11T12:41:47.764Z,16.73
2023-01-11T12:44:26.961Z,13.93
2023-01-11T12:47:17.983Z,16.48
2023-01-11T12:49:55.626Z,14.25
2023-01-11T12:52:45.895Z,17.02
2023-01-11T12:58:05.915Z,14.27
2023-01-11T13:01:06.971Z,13.95
2023-01-11T13:04:04.371Z,16.00
2023-01-11T13:06:41.787Z,16.23
2023-01-11T13:09:27.139Z,17.73
2023-01-11T13:12:01.866Z,12.68
2023-01-11T13:14:43.381Z,11.93
2023-01-11T13:17:24.842Z,15.65
2023-01-11T13:20:07.123Z,13.35
2023-01-11T13:22:41.623Z,16.02
2023-01-11T13:25:22.324Z,14.90
2023-01-11T13:27:54.805Z,15.65
2023-01-11T13:30:25.363Z,17.20
2023-01-11T13:32:58.296Z,13.70
2023-01-11T13:35:37.723Z,15.50
2023-01-11T13:38:21.439Z,15.02
2023-01-11T13:40:54.682Z,18.75
2023-01-11T13:43:29.983Z,14.40
2023-01-11T13:46:05.841Z,15.73
2023-01-11T13:48:41.782Z,15.77
2023-01-11T13:51:20.572Z,15.02
2023-01-11T13:53:57.126Z,12.07
2023-01-11T13:56:32.319Z,14.50
2023-01-11T13:59:08.301Z,19.38
2023-01-11T14:01:45.798Z,13.73
2023-01-11T14:04:22.368Z,14.07
2023-01-11T14:07:08.062Z,15.32
2023-01-11T14:09:54.954Z,14.88
2023-01-11T14:12:42.876Z,16.55
2023-01-11T14:15:28.759Z,17.08
2023-01-11T14:18:34.485Z,18.50
2023-01-11T14:21:13.212Z,14.73
2023-01-11T14:23:50.059Z,16.35
2023-01-11T14:26:39.613Z,13.60
2023-01-11T14:29:32.443Z,14.60
2023-01-11T14:32:16.297Z,16.35
2023-01-11T14:35:24.538Z,15.13
2023-01-11T14:38:19.012Z,13.90
2023-01-11T14:41:22.669Z,16.42
2023-01-11T14:44:14.642Z,17.77
2023-01-11T14:47:22.452Z,16.42
2023-01-11T14:50:05.127Z,15.93
2023-01-11T14:52:40.611Z,19.00
2023-01-11T14:55:18.898Z,18.80
2023-01-11T14:58:05.043Z,16.05
2023-01-11T15:01:10.924Z,16.75
2023-01-11T15:03:51.254Z,17.15
2023-01-11T15:06:22.850Z,16.83
2023-01-11T15:08:55.173Z,16.42
2023-01-11T15:11:40.960Z,16.67
2023-01-11T15:14:28.292Z,15.27
2023-01-11T15:17:20.666Z,15.20
2023-01-11T15:19:53.303Z,16.55
2023-01-11T15:22:29.448Z,17.80
2023-01-11T15:25:03.472Z,18.30
2023-01-11T15:27:35.788Z,17.75
2023-01-11T15:30:07.763Z,17.83
2023-01-11T15:32:38.899Z,19.33
2023-01-11T15:35:34.933Z,15.57
2023-01-11T15:38:12.441Z,17.23
2023-01-11T15:40:46.407Z,20.30
2023-01-11T15:43:43.477Z,15.77
2023-01-11T15:46:56.160Z,17.77
2023-01-11T15:50:05.993Z,18.67
2023-01-11T15:53:16.272Z,15.50
2023-01-11T15:59:10.961Z,18.13
2023-01-11T16:02:19.124Z,18.88
2023-01-11T16:04:52.339Z,16.05
2023-01-11T16:07:37.207Z,19.40
2023-01-11T16:10:29.540Z,17.30
2023-01-11T16:13:17.240Z,16.92
2023-01-11T16:16:00.353Z,16.35
2023-01-11T16:18:36.119Z,19.10
2023-01-11T16:21:09.374Z,17.52
2023-01-11T16:23:42.141Z,18.48
2023-01-11T16:26:15.660Z,28.02
2023-01-11T16:28:50.897Z,18.58
2023-01-11T16:31:20.399Z,25.30
2023-01-11T16:33:51.877Z,24.45
2023-01-11T16:36:22.959Z,18.08
2023-01-11T16:39:01.882Z,20.40
2023-01-11T16:41:36.190Z,20.27
2023-01-11T16:44:08.893Z,18.20
2023-01-11T16:47:14.773Z,15.65
2023-01-11T16:49:48.937Z,14.18
2023-01-11T16:52:39.659Z,22.15
2023-01-11T16:55:26.999Z,15.43
2023-01-11T16:57:59.707Z,17.05
2023-01-11T17:00:37.939Z,19.55
2023-01-11T17:03:23.848Z,17.63
2023-01-11T17:05:59.121Z,18.42
2023-01-11T17:08:31.672Z,20.67
2023-01-11T17:11:07.060Z,17.70
2023-01-11T17:14:26.092Z,16.60
2023-01-11T17:17:00.085Z,17.13
2023-01-11T17:19:31.944Z,19.92
2023-01-11T17:22:05.377Z,21.52
2023-01-11T17:24:40.944Z,17.45
2023-01-11T17:27:19.963Z,16.58
2023-01-11T17:29:50.602Z,19.55
2023-01-11T17:32:25.463Z,20.45
2023-01-11T17:34:55.291Z,20.17
2023-01-11T17:37:25.380Z,16.23
2023-01-11T17:39:54.794Z,21.67
2023-01-11T17:42:43.718Z,16.80
2023-01-11T17:45:21.331Z,15.88
2023-01-11T17:47:52.778Z,22.58
2023-01-11T17:50:29.352Z,19.10
2023-01-11T17:53:07.173Z,18.63
2023-01-11T17:55:36.407Z,19.92
2023-01-11T17:58:20.750Z,18.40
2023-01-11T18:01:25.631Z,16.83
2023-01-11T18:03:57.844Z,17.48
2023-01-11T18:06:35.422Z,19.10
2023-01-11T18:09:08.101Z,15.38
2023-01-11T18:11:39.969Z,18.05
2023-01-11T18:14:20.817Z,21.73
2023-01-11T18:17:01.625Z,18.48
2023-01-11T18:19:36.406Z,18.58
2023-01-11T18:22:05.631Z,18.88
2023-01-11T18:24:43.006Z,18.13
2023-01-11T18:27:30.058Z,17.30
2023-01-11T18:30:06.240Z,14.13
2023-01-11T18:32:42.750Z,17.35
2023-01-11T18:35:19.086Z,21.42
2023-01-11T18:37:48.915Z,20.92
2023-01-11T18:40:20.291Z,22.73
2023-01-11T18:42:51.831Z,17.83
2023-01-11T18:45:25.074Z,17.00
2023-01-11T18:47:54.428Z,18.33
2023-01-11T18:50:24.327Z,18.98
2023-01-11T18:52:53.914Z,21.70
2023-01-11T18:55:23.492Z,16.20
2023-01-11T18:57:52.661Z,19.52
2023-01-11T19:00:23.821Z,17.65
2023-01-11T19:02:53.142Z,20.48
2023-01-11T19:05:22.632Z,19.35
2023-01-11T19:07:51.750Z,17.48
2023-01-11T19:10:23.273Z,22.30
2023-01-11T19:12:52.546Z,19.92
2023-01-11T19:15:23.458Z,19.48
2023-01-11T19:17:52.571Z,22.33
2023-01-11T19:20:21.884Z,23.37
2023-01-11T19:22:51.596Z,22.53
2023-01-11T19:25:21.009Z,19.52
2023-01-11T19:27:50.538Z,21.98
2023-01-11T19:30:20.221Z,23.35
2023-01-11T19:32:54.013Z,19.63
2023-01-11T19:35:24.332Z,20.98
2023-01-11T19:37:53.654Z,19.98
2023-01-11T19:40:23.038Z,20.17
2023-01-11T19:42:52.586Z,24.85
2023-01-11T19:45:22.853Z,25.77
2023-01-11T19:47:53.468Z,20.20
2023-01-11T19:50:23.291Z,21.42
2023-01-11T19:55:22.792Z,21.48
2023-01-11T19:57:52.176Z,21.13
2023-01-11T20:00:21.906Z,21.85
2023-01-11T20:02:52.566Z,22.47
2023-01-11T20:05:23.000Z,18.92
2023-01-11T20:07:53.889Z,25.85
2023-01-11T20:10:23.733Z,21.67
2023-01-11T20:12:52.984Z,22.85
2023-01-11T20:15:22.622Z,20.15
2023-01-11T20:17:55.510Z,26.65
2023-01-11T20:20:26.102Z,25.90
2023-01-11T20:22:57.169Z,23.15
2023-01-11T20:25:27.492Z,20.05
2023-01-11T20:27:56.737Z,17.73
2023-01-11T20:30:26.500Z,19.27
2023-01-11T20:32:56.910Z,18.65
2023-01-11T20:35:26.805Z,20.52
2023-01-11T20:37:56.337Z,22.53
2023-01-11T20:40:26.364Z,19.23
2023-01-11T20:42:56.800Z,19.60
2023-01-11T20:45:29.183Z,20.52
2023-01-11T20:48:00.242Z,18.30
2023-01-11T20:50:30.301Z,21.13
2023-01-11T20:53:00.664Z,18.07
2023-01-11T20:55:30.525Z,18.23
2023-01-11T20:57:59.558Z,20.30
2023-01-11T21:00:29.658Z,22.73
2023-01-11T21:03:00.235Z,18.58
2023-01-11T21:05:29.683Z,16.95
2023-01-11T21:07:58.865Z,18.75
2023-01-11T21:10:28.422Z,17.20
2023-01-11T21:15:27.260Z,20.08
2023-01-11T21:17:56.765Z,21.30
2023-01-11T21:20:27.476Z,19.93
2023-01-11T21:22:56.633Z,20.25
2023-01-11T21:25:25.988Z,16.23
2023-01-11T21:27:55.129Z,18.42
2023-01-11T21:30:24.549Z,18.67
2023-01-11T21:32:54.687Z,16.30
2023-01-11T21:35:24.099Z,14.68
2023-01-11T21:37:54.475Z,20.20
2023-01-11T21:40:23.967Z,21.70
2023-01-11T21:42:53.148Z,21.75
2023-01-11T21:45:22.602Z,23.17
2023-01-11T21:47:51.695Z,24.02
2023-01-11T21:50:21.122Z,22.40
2023-01-11T21:52:50.238Z,24.00
2023-01-11T21:55:20.996Z,21.02
2023-01-11T21:57:50.051Z,20.05
2023-01-11T22:00:20.624Z,18.80
2023-01-11T22:05:20.439Z,19.88
2023-01-11T22:07:49.511Z,17.52
2023-01-11T22:10:20.687Z,15.10
2023-01-11T22:12:49.743Z,16.48
2023-01-11T22:15:19.356Z,16.23
2023-01-11T22:17:48.519Z,14.33
2023-01-11T22:20:18.333Z,14.03
2023-01-11T22:22:47.422Z,15.45
2023-01-11T22:25:17.385Z,14.60
2023-01-11T22:27:47.872Z,14.05
2023-01-11T22:30:17.964Z,12.63
2023-01-11T22:32:47.906Z,12.50
2023-01-11T22:35:17.430Z,8.00
2023-01-11T22:37:46.490Z,8.63
2023-01-11T22:40:16.447Z,10.57
2023-01-11T22:42:47.540Z,10.35
2023-01-11T22:45:17.355Z,8.32
2023-01-11T22:47:47.448Z,8.57
2023-01-11T22:52:46.080Z,7.78
2023-01-11T22:55:15.492Z,7.93
2023-01-11T22:57:45.944Z,11.60
2023-01-11T23:00:15.878Z,7.72
2023-01-11T23:02:44.946Z,9.30
2023-01-11T23:05:14.635Z,9.45
2023-01-11T23:07:45.462Z,10.48
2023-01-11T23:10:15.002Z,10.15
2023-01-11T23:13:01.619Z,10.48
2023-01-11T23:15:32.400Z,8.60
2023-01-11T23:18:01.648Z,9.07
2023-01-11T23:20:30.986Z,10.50
2023-01-11T23:23:00.130Z,8.50
2023-01-11T23:25:29.544Z,9.93
2023-01-11T23:27:59.737Z,10.10
2023-01-11T23:30:29.259Z,9.93
2023-01-11T23:32:59.689Z,9.50
2023-01-11T23:35:29.172Z,10.57
2023-01-11T23:37:58.227Z,10.27
2023-01-11T23:40:27.576Z,8.67
2023-01-11T23:42:55.876Z,8.55
2023-01-11T23:45:25.215Z,10.20
2023-01-11T23:47:53.288Z,8.55
2023-01-11T23:50:24.023Z,8.13
2023-01-11T23:52:53.165Z,10.18
2023-01-11T23:55:22.471Z,11.73
2023-01-11T23:58:05.366Z,9.02
